Terminal Aerodrome Forecast
Issued by NWS Jackson, MS

Current Version | Previous Version | Text Only | Print | Product List | Glossary On
Versions: 1 2 3 4 5 6 7 8 9 10 11 12 13 14 15 16
000
FTUS44 KJAN 281700
TAFJAN
TAF
KJAN 281737Z 2818/2918 14007KT P6SM SKC
     FM291100 19012G18KT P6SM FEW010 BKN250=

USA.gov is the U.S. government's official web portal to all federal, state and local government web resources and services.